sensor_id;sensor_type;location;lat;lon;timestamp;P1;durP1;ratioP1;P2;durP2;ratioP2
53718;SDS011;39616;48.872;9.390;2023-04-09T00:00:24;12.65;;;7.78;;
53718;SDS011;39616;48.872;9.390;2023-04-09T00:02:55;12.57;;;8.57;;
53718;SDS011;39616;48.872;9.390;2023-04-09T00:05:26;14.00;;;8.88;;
53718;SDS011;39616;48.872;9.390;2023-04-09T00:07:56;13.43;;;8.82;;
53718;SDS011;39616;48.872;9.390;2023-04-09T00:10:26;10.95;;;7.13;;
53718;SDS011;39616;48.872;9.390;2023-04-09T00:12:57;12.27;;;8.05;;
53718;SDS011;39616;48.872;9.390;2023-04-09T00:15:27;12.20;;;7.78;;
53718;SDS011;39616;48.872;9.390;2023-04-09T00:17:57;11.82;;;8.75;;
53718;SDS011;39616;48.872;9.390;2023-04-09T00:20:28;13.40;;;8.10;;
53718;SDS011;39616;48.872;9.390;2023-04-09T00:22:58;11.52;;;8.07;;
53718;SDS011;39616;48.872;9.390;2023-04-09T00:25:28;13.27;;;8.63;;
53718;SDS011;39616;48.872;9.390;2023-04-09T00:27:59;12.07;;;7.60;;
53718;SDS011;39616;48.872;9.390;2023-04-09T00:30:29;13.95;;;9.38;;
53718;SDS011;39616;48.872;9.390;2023-04-09T00:33:00;11.65;;;7.90;;
53718;SDS011;39616;48.872;9.390;2023-04-09T00:35:30;14.98;;;8.80;;
53718;SDS011;39616;48.872;9.390;2023-04-09T00:38:01;11.95;;;8.07;;
53718;SDS011;39616;48.872;9.390;2023-04-09T00:40:31;11.93;;;8.02;;
53718;SDS011;39616;48.872;9.390;2023-04-09T00:43:02;10.30;;;7.25;;
53718;SDS011;39616;48.872;9.390;2023-04-09T00:45:32;12.77;;;8.75;;
53718;SDS011;39616;48.872;9.390;2023-04-09T00:48:03;13.07;;;7.97;;
53718;SDS011;39616;48.872;9.390;2023-04-09T00:50:33;9.77;;;7.07;;
53718;SDS011;39616;48.872;9.390;2023-04-09T00:53:04;10.55;;;7.47;;
53718;SDS011;39616;48.872;9.390;2023-04-09T00:55:35;12.93;;;8.43;;
53718;SDS011;39616;48.872;9.390;2023-04-09T00:58:05;13.43;;;8.45;;
53718;SDS011;39616;48.872;9.390;2023-04-09T01:00:36;12.23;;;7.70;;
53718;SDS011;39616;48.872;9.390;2023-04-09T01:03:06;10.98;;;7.07;;
53718;SDS011;39616;48.872;9.390;2023-04-09T01:08:36;11.13;;;7.85;;
53718;SDS011;39616;48.872;9.390;2023-04-09T01:21:01;14.70;;;9.63;;
53718;SDS011;39616;48.872;9.390;2023-04-09T01:26:03;15.68;;;10.00;;
53718;SDS011;39616;48.872;9.390;2023-04-09T01:28:41;16.30;;;10.90;;
53718;SDS011;39616;48.872;9.390;2023-04-09T01:31:16;13.30;;;9.75;;
53718;SDS011;39616;48.872;9.390;2023-04-09T01:33:47;16.50;;;10.23;;
53718;SDS011;39616;48.872;9.390;2023-04-09T01:36:18;14.35;;;10.07;;
53718;SDS011;39616;48.872;9.390;2023-04-09T01:38:49;18.48;;;11.50;;
53718;SDS011;39616;48.872;9.390;2023-04-09T01:41:21;19.58;;;11.55;;
53718;SDS011;39616;48.872;9.390;2023-04-09T01:43:53;20.10;;;11.90;;
53718;SDS011;39616;48.872;9.390;2023-04-09T01:46:24;17.95;;;11.70;;
53718;SDS011;39616;48.872;9.390;2023-04-09T01:48:54;20.95;;;12.18;;
53718;SDS011;39616;48.872;9.390;2023-04-09T01:51:25;18.95;;;10.55;;
53718;SDS011;39616;48.872;9.390;2023-04-09T01:53:57;17.20;;;10.77;;
53718;SDS011;39616;48.872;9.390;2023-04-09T01:56:42;15.20;;;10.07;;
53718;SDS011;39616;48.872;9.390;2023-04-09T01:59:13;12.68;;;9.15;;
53718;SDS011;39616;48.872;9.390;2023-04-09T02:01:45;16.05;;;9.98;;
53718;SDS011;39616;48.872;9.390;2023-04-09T02:04:22;15.30;;;10.85;;
53718;SDS011;39616;48.872;9.390;2023-04-09T02:09:43;15.35;;;10.45;;
53718;SDS011;39616;48.872;9.390;2023-04-09T02:12:17;13.88;;;9.68;;
53718;SDS011;39616;48.872;9.390;2023-04-09T02:14:51;14.77;;;8.07;;
53718;SDS011;39616;48.872;9.390;2023-04-09T02:17:22;15.48;;;8.32;;
53718;SDS011;39616;48.872;9.390;2023-04-09T02:19:52;11.07;;;8.10;;
53718;SDS011;39616;48.872;9.390;2023-04-09T02:22:23;10.45;;;7.80;;
53718;SDS011;39616;48.872;9.390;2023-04-09T02:24:53;13.30;;;8.23;;
53718;SDS011;39616;48.872;9.390;2023-04-09T02:27:23;11.98;;;7.60;;
53718;SDS011;39616;48.872;9.390;2023-04-09T02:29:54;13.23;;;8.80;;
53718;SDS011;39616;48.872;9.390;2023-04-09T02:32:24;12.88;;;7.82;;
53718;SDS011;39616;48.872;9.390;2023-04-09T02:34:55;13.85;;;9.02;;
53718;SDS011;39616;48.872;9.390;2023-04-09T02:37:25;12.95;;;7.70;;
53718;SDS011;39616;48.872;9.390;2023-04-09T02:39:56;15.80;;;8.65;;
53718;SDS011;39616;48.872;9.390;2023-04-09T02:42:26;14.18;;;9.20;;
53718;SDS011;39616;48.872;9.390;2023-04-09T02:44:56;11.15;;;7.78;;
53718;SDS011;39616;48.872;9.390;2023-04-09T02:47:26;12.02;;;8.90;;
53718;SDS011;39616;48.872;9.390;2023-04-09T02:49:59;14.50;;;7.82;;
53718;SDS011;39616;48.872;9.390;2023-04-09T02:52:29;12.60;;;7.80;;
53718;SDS011;39616;48.872;9.390;2023-04-09T02:54:59;10.15;;;7.72;;
53718;SDS011;39616;48.872;9.390;2023-04-09T02:57:30;12.38;;;8.27;;
53718;SDS011;39616;48.872;9.390;2023-04-09T03:00:02;15.02;;;7.82;;
53718;SDS011;39616;48.872;9.390;2023-04-09T03:02:32;15.32;;;8.38;;
53718;SDS011;39616;48.872;9.390;2023-04-09T03:05:03;14.65;;;8.70;;
53718;SDS011;39616;48.872;9.390;2023-04-09T03:07:34;13.80;;;8.68;;
53718;SDS011;39616;48.872;9.390;2023-04-09T03:10:04;12.82;;;8.68;;
53718;SDS011;39616;48.872;9.390;2023-04-09T03:12:37;14.15;;;9.07;;
53718;SDS011;39616;48.872;9.390;2023-04-09T03:15:08;10.95;;;8.18;;
53718;SDS011;39616;48.872;9.390;2023-04-09T03:17:39;15.35;;;9.45;;
53718;SDS011;39616;48.872;9.390;2023-04-09T03:20:10;14.20;;;8.95;;
53718;SDS011;39616;48.872;9.390;2023-04-09T03:22:40;14.27;;;8.23;;
53718;SDS011;39616;48.872;9.390;2023-04-09T03:25:10;15.15;;;8.38;;
53718;SDS011;39616;48.872;9.390;2023-04-09T03:27:40;24.92;;;10.38;;
53718;SDS011;39616;48.872;9.390;2023-04-09T03:30:11;17.48;;;10.85;;
53718;SDS011;39616;48.872;9.390;2023-04-09T03:32:41;17.48;;;10.63;;
53718;SDS011;39616;48.872;9.390;2023-04-09T03:35:12;15.00;;;10.55;;
53718;SDS011;39616;48.872;9.390;2023-04-09T03:37:42;15.88;;;10.43;;
53718;SDS011;39616;48.872;9.390;2023-04-09T03:40:12;14.85;;;10.52;;
53718;SDS011;39616;48.872;9.390;2023-04-09T03:42:43;16.63;;;10.95;;
53718;SDS011;39616;48.872;9.390;2023-04-09T03:45:13;17.80;;;10.23;;
53718;SDS011;39616;48.872;9.390;2023-04-09T03:47:43;14.40;;;9.57;;
53718;SDS011;39616;48.872;9.390;2023-04-09T03:50:14;16.45;;;10.02;;
53718;SDS011;39616;48.872;9.390;2023-04-09T03:52:44;14.95;;;11.13;;
53718;SDS011;39616;48.872;9.390;2023-04-09T03:55:15;16.33;;;9.68;;
53718;SDS011;39616;48.872;9.390;2023-04-09T03:57:45;14.30;;;9.48;;
53718;SDS011;39616;48.872;9.390;2023-04-09T04:00:15;14.23;;;9.07;;
53718;SDS011;39616;48.872;9.390;2023-04-09T04:02:46;15.90;;;10.13;;
53718;SDS011;39616;48.872;9.390;2023-04-09T04:05:16;15.63;;;9.25;;
53718;SDS011;39616;48.872;9.390;2023-04-09T04:07:46;14.90;;;9.70;;
53718;SDS011;39616;48.872;9.390;2023-04-09T04:10:17;15.70;;;10.07;;
53718;SDS011;39616;48.872;9.390;2023-04-09T04:12:47;17.48;;;10.98;;
53718;SDS011;39616;48.872;9.390;2023-04-09T04:15:17;15.00;;;9.82;;
53718;SDS011;39616;48.872;9.390;2023-04-09T04:17:49;15.60;;;10.63;;
53718;SDS011;39616;48.872;9.390;2023-04-09T04:20:19;15.73;;;10.15;;
53718;SDS011;39616;48.872;9.390;2023-04-09T04:22:50;17.13;;;10.48;;
53718;SDS011;39616;48.872;9.390;2023-04-09T04:25:20;17.20;;;10.77;;
53718;SDS011;39616;48.872;9.390;2023-04-09T04:27:50;13.23;;;9.23;;
53718;SDS011;39616;48.872;9.390;2023-04-09T04:30:20;16.67;;;11.10;;
53718;SDS011;39616;48.872;9.390;2023-04-09T04:32:51;15.98;;;10.35;;
53718;SDS011;39616;48.872;9.390;2023-04-09T04:35:21;16.70;;;10.25;;
53718;SDS011;39616;48.872;9.390;2023-04-09T04:37:51;16.48;;;9.93;;
53718;SDS011;39616;48.872;9.390;2023-04-09T04:40:22;15.55;;;9.75;;
53718;SDS011;39616;48.872;9.390;2023-04-09T04:42:52;15.30;;;9.27;;
53718;SDS011;39616;48.872;9.390;2023-04-09T04:45:23;14.40;;;9.52;;
53718;SDS011;39616;48.872;9.390;2023-04-09T04:47:53;16.38;;;9.90;;
53718;SDS011;39616;48.872;9.390;2023-04-09T04:50:23;16.55;;;10.32;;
53718;SDS011;39616;48.872;9.390;2023-04-09T04:52:54;18.98;;;11.32;;
53718;SDS011;39616;48.872;9.390;2023-04-09T04:55:24;15.57;;;10.20;;
53718;SDS011;39616;48.872;9.390;2023-04-09T04:57:55;16.25;;;9.40;;
53718;SDS011;39616;48.872;9.390;2023-04-09T05:00:25;16.83;;;10.10;;
53718;SDS011;39616;48.872;9.390;2023-04-09T05:02:55;14.85;;;10.30;;
53718;SDS011;39616;48.872;9.390;2023-04-09T05:05:25;16.83;;;9.25;;
53718;SDS011;39616;48.872;9.390;2023-04-09T05:07:56;17.23;;;10.73;;
53718;SDS011;39616;48.872;9.390;2023-04-09T05:10:26;15.15;;;9.85;;
53718;SDS011;39616;48.872;9.390;2023-04-09T05:12:56;16.02;;;10.10;;
53718;SDS011;39616;48.872;9.390;2023-04-09T05:15:27;17.05;;;10.52;;
53718;SDS011;39616;48.872;9.390;2023-04-09T05:17:57;16.98;;;10.13;;
53718;SDS011;39616;48.872;9.390;2023-04-09T05:20:30;16.83;;;10.00;;
53718;SDS011;39616;48.872;9.390;2023-04-09T05:23:01;16.92;;;10.38;;
53718;SDS011;39616;48.872;9.390;2023-04-09T05:25:31;17.90;;;9.70;;
53718;SDS011;39616;48.872;9.390;2023-04-09T05:28:01;16.52;;;9.77;;
53718;SDS011;39616;48.872;9.390;2023-04-09T05:30:31;17.98;;;10.45;;
53718;SDS011;39616;48.872;9.390;2023-04-09T05:33:02;15.25;;;9.80;;
53718;SDS011;39616;48.872;9.390;2023-04-09T05:35:32;14.73;;;9.27;;
53718;SDS011;39616;48.872;9.390;2023-04-09T05:38:02;15.80;;;9.73;;
53718;SDS011;39616;48.872;9.390;2023-04-09T05:40:33;15.85;;;9.75;;
53718;SDS011;39616;48.872;9.390;2023-04-09T05:43:04;13.05;;;9.27;;
53718;SDS011;39616;48.872;9.390;2023-04-09T05:45:35;15.38;;;8.85;;
53718;SDS011;39616;48.872;9.390;2023-04-09T05:48:05;14.88;;;9.77;;
53718;SDS011;39616;48.872;9.390;2023-04-09T05:50:35;14.27;;;8.80;;
53718;SDS011;39616;48.872;9.390;2023-04-09T05:53:06;14.70;;;9.10;;
53718;SDS011;39616;48.872;9.390;2023-04-09T05:55:36;13.77;;;9.38;;
53718;SDS011;39616;48.872;9.390;2023-04-09T05:58:06;15.65;;;9.10;;
53718;SDS011;39616;48.872;9.390;2023-04-09T06:00:37;13.60;;;8.80;;
53718;SDS011;39616;48.872;9.390;2023-04-09T06:03:08;13.20;;;8.05;;
53718;SDS011;39616;48.872;9.390;2023-04-09T06:05:38;14.23;;;8.45;;
53718;SDS011;39616;48.872;9.390;2023-04-09T06:08:09;12.57;;;8.07;;
53718;SDS011;39616;48.872;9.390;2023-04-09T06:10:39;13.73;;;8.50;;
53718;SDS011;39616;48.872;9.390;2023-04-09T06:13:10;17.83;;;9.30;;
53718;SDS011;39616;48.872;9.390;2023-04-09T06:15:40;12.68;;;7.88;;
53718;SDS011;39616;48.872;9.390;2023-04-09T06:18:10;14.13;;;8.82;;
53718;SDS011;39616;48.872;9.390;2023-04-09T06:20:41;14.57;;;8.80;;
53718;SDS011;39616;48.872;9.390;2023-04-09T06:23:11;15.43;;;8.32;;
53718;SDS011;39616;48.872;9.390;2023-04-09T06:25:41;14.25;;;8.38;;
53718;SDS011;39616;48.872;9.390;2023-04-09T06:28:12;12.98;;;8.05;;
53718;SDS011;39616;48.872;9.390;2023-04-09T06:30:42;11.15;;;7.93;;
53718;SDS011;39616;48.872;9.390;2023-04-09T06:33:12;13.32;;;7.63;;
53718;SDS011;39616;48.872;9.390;2023-04-09T06:35:42;11.90;;;8.07;;
53718;SDS011;39616;48.872;9.390;2023-04-09T06:38:13;14.13;;;8.68;;
53718;SDS011;39616;48.872;9.390;2023-04-09T06:40:44;13.50;;;8.32;;
53718;SDS011;39616;48.872;9.390;2023-04-09T06:43:15;16.17;;;8.38;;
53718;SDS011;39616;48.872;9.390;2023-04-09T06:45:45;13.68;;;8.63;;
53718;SDS011;39616;48.872;9.390;2023-04-09T06:48:16;12.75;;;8.07;;
53718;SDS011;39616;48.872;9.390;2023-04-09T06:50:46;12.93;;;7.53;;
53718;SDS011;39616;48.872;9.390;2023-04-09T06:53:17;12.80;;;8.43;;
53718;SDS011;39616;48.872;9.390;2023-04-09T06:55:47;13.50;;;7.65;;
53718;SDS011;39616;48.872;9.390;2023-04-09T06:58:17;15.30;;;8.70;;
53718;SDS011;39616;48.872;9.390;2023-04-09T07:00:48;14.82;;;8.65;;
53718;SDS011;39616;48.872;9.390;2023-04-09T07:03:18;13.20;;;8.18;;
53718;SDS011;39616;48.872;9.390;2023-04-09T07:05:48;12.00;;;7.70;;
53718;SDS011;39616;48.872;9.390;2023-04-09T07:08:19;12.75;;;8.13;;
53718;SDS011;39616;48.872;9.390;2023-04-09T07:10:51;12.68;;;8.15;;
53718;SDS011;39616;48.872;9.390;2023-04-09T07:13:22;10.50;;;6.90;;
53718;SDS011;39616;48.872;9.390;2023-04-09T07:15:52;12.18;;;7.70;;
53718;SDS011;39616;48.872;9.390;2023-04-09T07:18:22;11.32;;;7.20;;
53718;SDS011;39616;48.872;9.390;2023-04-09T07:20:53;12.50;;;7.70;;
53718;SDS011;39616;48.872;9.390;2023-04-09T07:23:24;12.05;;;7.25;;
53718;SDS011;39616;48.872;9.390;2023-04-09T07:25:54;10.65;;;6.85;;
53718;SDS011;39616;48.872;9.390;2023-04-09T07:28:25;9.85;;;6.35;;
53718;SDS011;39616;48.872;9.390;2023-04-09T07:30:56;10.93;;;6.68;;
53718;SDS011;39616;48.872;9.390;2023-04-09T07:33:26;10.70;;;6.82;;
53718;SDS011;39616;48.872;9.390;2023-04-09T07:35:56;10.90;;;6.75;;
53718;SDS011;39616;48.872;9.390;2023-04-09T07:38:30;8.23;;;5.90;;
53718;SDS011;39616;48.872;9.390;2023-04-09T07:41:00;8.93;;;6.20;;
53718;SDS011;39616;48.872;9.390;2023-04-09T07:43:30;11.35;;;6.38;;
53718;SDS011;39616;48.872;9.390;2023-04-09T07:46:01;11.20;;;7.15;;
53718;SDS011;39616;48.872;9.390;2023-04-09T07:48:31;9.68;;;6.50;;
53718;SDS011;39616;48.872;9.390;2023-04-09T07:51:02;9.77;;;6.20;;
53718;SDS011;39616;48.872;9.390;2023-04-09T07:53:32;8.02;;;5.80;;
53718;SDS011;39616;48.872;9.390;2023-04-09T07:56:02;8.93;;;5.15;;
53718;SDS011;39616;48.872;9.390;2023-04-09T07:58:33;8.82;;;5.82;;
53718;SDS011;39616;48.872;9.390;2023-04-09T08:01:03;10.10;;;6.40;;
53718;SDS011;39616;48.872;9.390;2023-04-09T08:03:34;8.88;;;6.63;;
53718;SDS011;39616;48.872;9.390;2023-04-09T08:06:05;10.15;;;6.65;;
53718;SDS011;39616;48.872;9.390;2023-04-09T08:08:36;10.20;;;6.32;;
53718;SDS011;39616;48.872;9.390;2023-04-09T08:11:06;8.55;;;5.15;;
53718;SDS011;39616;48.872;9.390;2023-04-09T08:13:37;9.18;;;6.30;;
53718;SDS011;39616;48.872;9.390;2023-04-09T08:16:07;11.07;;;7.22;;
53718;SDS011;39616;48.872;9.390;2023-04-09T08:18:37;10.48;;;7.00;;
53718;SDS011;39616;48.872;9.390;2023-04-09T08:21:08;8.70;;;5.97;;
53718;SDS011;39616;48.872;9.390;2023-04-09T08:23:39;8.35;;;5.95;;
53718;SDS011;39616;48.872;9.390;2023-04-09T08:26:09;10.15;;;7.07;;
53718;SDS011;39616;48.872;9.390;2023-04-09T08:28:39;8.77;;;5.55;;
53718;SDS011;39616;48.872;9.390;2023-04-09T08:31:10;6.20;;;4.95;;
53718;SDS011;39616;48.872;9.390;2023-04-09T08:33:41;8.65;;;6.05;;
53718;SDS011;39616;48.872;9.390;2023-04-09T08:36:11;7.80;;;5.63;;
53718;SDS011;39616;48.872;9.390;2023-04-09T08:38:42;8.57;;;5.82;;
53718;SDS011;39616;48.872;9.390;2023-04-09T08:41:17;8.15;;;6.05;;
53718;SDS011;39616;48.872;9.390;2023-04-09T08:43:49;9.60;;;6.38;;
53718;SDS011;39616;48.872;9.390;2023-04-09T08:46:21;7.10;;;5.65;;
53718;SDS011;39616;48.872;9.390;2023-04-09T08:48:52;8.38;;;5.78;;
53718;SDS011;39616;48.872;9.390;2023-04-09T08:51:23;8.23;;;5.32;;
53718;SDS011;39616;48.872;9.390;2023-04-09T08:53:54;6.35;;;5.15;;
53718;SDS011;39616;48.872;9.390;2023-04-09T08:56:26;7.65;;;5.55;;
53718;SDS011;39616;48.872;9.390;2023-04-09T08:58:57;9.95;;;6.65;;
53718;SDS011;39616;48.872;9.390;2023-04-09T09:01:28;8.18;;;5.78;;
53718;SDS011;39616;48.872;9.390;2023-04-09T09:04:03;7.20;;;5.20;;
53718;SDS011;39616;48.872;9.390;2023-04-09T09:06:38;7.43;;;5.45;;
53718;SDS011;39616;48.872;9.390;2023-04-09T09:11:42;6.78;;;5.53;;
53718;SDS011;39616;48.872;9.390;2023-04-09T09:14:15;7.22;;;5.28;;
53718;SDS011;39616;48.872;9.390;2023-04-09T09:19:27;7.82;;;5.07;;
53718;SDS011;39616;48.872;9.390;2023-04-09T09:22:00;7.80;;;5.93;;
53718;SDS011;39616;48.872;9.390;2023-04-09T09:24:48;7.22;;;5.57;;
53718;SDS011;39616;48.872;9.390;2023-04-09T09:27:35;5.80;;;4.50;;
53718;SDS011;39616;48.872;9.390;2023-04-09T09:30:08;6.57;;;5.10;;
53718;SDS011;39616;48.872;9.390;2023-04-09T09:32:51;7.50;;;5.80;;
53718;SDS011;39616;48.872;9.390;2023-04-09T09:35:22;8.70;;;5.97;;
53718;SDS011;39616;48.872;9.390;2023-04-09T09:38:02;9.90;;;6.05;;
53718;SDS011;39616;48.872;9.390;2023-04-09T09:40:33;6.03;;;4.82;;
53718;SDS011;39616;48.872;9.390;2023-04-09T09:43:03;8.55;;;4.60;;
53718;SDS011;39616;48.872;9.390;2023-04-09T09:45:35;5.03;;;3.95;;
53718;SDS011;39616;48.872;9.390;2023-04-09T09:48:06;4.25;;;3.45;;
53718;SDS011;39616;48.872;9.390;2023-04-09T09:50:37;4.68;;;3.40;;
53718;SDS011;39616;48.872;9.390;2023-04-09T09:53:10;4.97;;;4.40;;
53718;SDS011;39616;48.872;9.390;2023-04-09T09:55:42;6.28;;;4.93;;
53718;SDS011;39616;48.872;9.390;2023-04-09T09:58:19;5.80;;;4.47;;
53718;SDS011;39616;48.872;9.390;2023-04-09T10:00:53;4.40;;;3.30;;
53718;SDS011;39616;48.872;9.390;2023-04-09T10:03:26;4.22;;;3.55;;
53718;SDS011;39616;48.872;9.390;2023-04-09T10:05:59;3.97;;;3.30;;
53718;SDS011;39616;48.872;9.390;2023-04-09T10:08:32;4.50;;;3.30;;
53718;SDS011;39616;48.872;9.390;2023-04-09T10:11:04;4.35;;;3.35;;
53718;SDS011;39616;48.872;9.390;2023-04-09T10:13:39;5.50;;;4.25;;
53718;SDS011;39616;48.872;9.390;2023-04-09T10:16:12;5.95;;;4.55;;
53718;SDS011;39616;48.872;9.390;2023-04-09T10:18:43;2.97;;;2.67;;
53718;SDS011;39616;48.872;9.390;2023-04-09T10:24:06;4.70;;;3.60;;
53718;SDS011;39616;48.872;9.390;2023-04-09T10:26:41;3.90;;;2.88;;
53718;SDS011;39616;48.872;9.390;2023-04-09T10:29:15;6.78;;;3.50;;
53718;SDS011;39616;48.872;9.390;2023-04-09T10:34:16;4.03;;;3.05;;
53718;SDS011;39616;48.872;9.390;2023-04-09T10:36:54;3.10;;;2.33;;
53718;SDS011;39616;48.872;9.390;2023-04-09T10:39:26;3.92;;;3.10;;
53718;SDS011;39616;48.872;9.390;2023-04-09T10:42:08;5.80;;;3.22;;
53718;SDS011;39616;48.872;9.390;2023-04-09T10:47:43;3.30;;;2.20;;
53718;SDS011;39616;48.872;9.390;2023-04-09T10:50:19;3.38;;;2.85;;
53718;SDS011;39616;48.872;9.390;2023-04-09T10:52:55;6.40;;;3.75;;
53718;SDS011;39616;48.872;9.390;2023-04-09T10:55:36;2.50;;;2.27;;
53718;SDS011;39616;48.872;9.390;2023-04-09T10:58:10;3.45;;;2.58;;
53718;SDS011;39616;48.872;9.390;2023-04-09T11:00:42;2.67;;;2.15;;
53718;SDS011;39616;48.872;9.390;2023-04-09T11:06:01;2.25;;;1.98;;
53718;SDS011;39616;48.872;9.390;2023-04-09T11:08:35;2.50;;;1.75;;
53718;SDS011;39616;48.872;9.390;2023-04-09T11:11:07;2.72;;;2.00;;
53718;SDS011;39616;48.872;9.390;2023-04-09T11:13:39;2.38;;;1.75;;
53718;SDS011;39616;48.872;9.390;2023-04-09T11:16:10;2.17;;;1.73;;
53718;SDS011;39616;48.872;9.390;2023-04-09T11:18:40;2.85;;;2.00;;
53718;SDS011;39616;48.872;9.390;2023-04-09T11:21:11;2.83;;;2.15;;
53718;SDS011;39616;48.872;9.390;2023-04-09T11:23:48;2.65;;;1.92;;
53718;SDS011;39616;48.872;9.390;2023-04-09T11:26:24;2.67;;;2.30;;
53718;SDS011;39616;48.872;9.390;2023-04-09T11:29:05;2.47;;;1.90;;
53718;SDS011;39616;48.872;9.390;2023-04-09T11:31:41;2.47;;;2.28;;
53718;SDS011;39616;48.872;9.390;2023-04-09T11:34:13;2.05;;;1.85;;
53718;SDS011;39616;48.872;9.390;2023-04-09T11:36:47;2.25;;;2.05;;
53718;SDS011;39616;48.872;9.390;2023-04-09T11:39:18;3.15;;;2.08;;
53718;SDS011;39616;48.872;9.390;2023-04-09T11:41:48;3.15;;;2.30;;
53718;SDS011;39616;48.872;9.390;2023-04-09T11:44:19;3.65;;;2.33;;
53718;SDS011;39616;48.872;9.390;2023-04-09T11:46:50;2.83;;;2.17;;
53718;SDS011;39616;48.872;9.390;2023-04-09T11:49:21;2.67;;;2.20;;
53718;SDS011;39616;48.872;9.390;2023-04-09T11:51:51;3.03;;;2.65;;
53718;SDS011;39616;48.872;9.390;2023-04-09T11:54:22;2.72;;;2.38;;
53718;SDS011;39616;48.872;9.390;2023-04-09T11:56:52;2.30;;;2.10;;
53718;SDS011;39616;48.872;9.390;2023-04-09T11:59:25;2.42;;;2.15;;
53718;SDS011;39616;48.872;9.390;2023-04-09T12:01:58;3.97;;;2.50;;
53718;SDS011;39616;48.872;9.390;2023-04-09T12:04:29;2.55;;;2.20;;
53718;SDS011;39616;48.872;9.390;2023-04-09T12:06:59;2.53;;;1.92;;
53718;SDS011;39616;48.872;9.390;2023-04-09T12:09:30;2.10;;;1.67;;
53718;SDS011;39616;48.872;9.390;2023-04-09T12:12:00;2.05;;;1.77;;
53718;SDS011;39616;48.872;9.390;2023-04-09T12:14:31;2.35;;;1.70;;
53718;SDS011;39616;48.872;9.390;2023-04-09T12:17:01;2.08;;;1.73;;
53718;SDS011;39616;48.872;9.390;2023-04-09T12:19:35;1.50;;;1.40;;
53718;SDS011;39616;48.872;9.390;2023-04-09T12:22:05;2.08;;;1.75;;
53718;SDS011;39616;48.872;9.390;2023-04-09T12:24:35;2.53;;;1.90;;
53718;SDS011;39616;48.872;9.390;2023-04-09T12:27:06;1.70;;;1.58;;
53718;SDS011;39616;48.872;9.390;2023-04-09T12:29:36;1.75;;;1.40;;
53718;SDS011;39616;48.872;9.390;2023-04-09T12:32:06;1.90;;;1.70;;
53718;SDS011;39616;48.872;9.390;2023-04-09T12:34:37;2.03;;;1.67;;
53718;SDS011;39616;48.872;9.390;2023-04-09T12:37:07;2.05;;;1.70;;
53718;SDS011;39616;48.872;9.390;2023-04-09T12:39:38;2.38;;;1.92;;
53718;SDS011;39616;48.872;9.390;2023-04-09T12:42:08;2.35;;;1.95;;
53718;SDS011;39616;48.872;9.390;2023-04-09T12:44:38;1.75;;;1.40;;
53718;SDS011;39616;48.872;9.390;2023-04-09T12:47:09;3.15;;;2.03;;
53718;SDS011;39616;48.872;9.390;2023-04-09T12:49:39;2.10;;;1.90;;
53718;SDS011;39616;48.872;9.390;2023-04-09T12:52:14;1.60;;;1.50;;
53718;SDS011;39616;48.872;9.390;2023-04-09T12:54:45;2.42;;;1.80;;
53718;SDS011;39616;48.872;9.390;2023-04-09T12:57:15;2.25;;;1.80;;
53718;SDS011;39616;48.872;9.390;2023-04-09T12:59:45;2.83;;;2.08;;
53718;SDS011;39616;48.872;9.390;2023-04-09T13:02:16;2.08;;;1.55;;
53718;SDS011;39616;48.872;9.390;2023-04-09T13:04:46;2.10;;;1.52;;
53718;SDS011;39616;48.872;9.390;2023-04-09T13:07:17;1.98;;;1.77;;
53718;SDS011;39616;48.872;9.390;2023-04-09T13:09:48;2.80;;;1.85;;
53718;SDS011;39616;48.872;9.390;2023-04-09T13:12:19;2.15;;;1.55;;
53718;SDS011;39616;48.872;9.390;2023-04-09T13:14:52;2.00;;;1.80;;
53718;SDS011;39616;48.872;9.390;2023-04-09T13:17:23;2.28;;;1.73;;
53718;SDS011;39616;48.872;9.390;2023-04-09T13:19:54;2.30;;;2.08;;
53718;SDS011;39616;48.872;9.390;2023-04-09T13:22:24;2.28;;;1.58;;
53718;SDS011;39616;48.872;9.390;2023-04-09T13:24:54;1.95;;;1.55;;
53718;SDS011;39616;48.872;9.390;2023-04-09T13:27:25;2.13;;;1.40;;
53718;SDS011;39616;48.872;9.390;2023-04-09T13:29:55;1.60;;;1.45;;
53718;SDS011;39616;48.872;9.390;2023-04-09T13:32:25;1.83;;;1.50;;
53718;SDS011;39616;48.872;9.390;2023-04-09T13:34:56;2.97;;;2.10;;
53718;SDS011;39616;48.872;9.390;2023-04-09T13:37:26;3.60;;;2.10;;
53718;SDS011;39616;48.872;9.390;2023-04-09T13:39:57;3.40;;;1.70;;
53718;SDS011;39616;48.872;9.390;2023-04-09T13:42:27;2.42;;;1.60;;
53718;SDS011;39616;48.872;9.390;2023-04-09T13:44:57;2.00;;;1.77;;
53718;SDS011;39616;48.872;9.390;2023-04-09T13:47:28;1.63;;;1.52;;
53718;SDS011;39616;48.872;9.390;2023-04-09T13:49:58;2.40;;;2.00;;
53718;SDS011;39616;48.872;9.390;2023-04-09T13:52:28;3.03;;;2.22;;
53718;SDS011;39616;48.872;9.390;2023-04-09T13:54:59;3.47;;;2.35;;
53718;SDS011;39616;48.872;9.390;2023-04-09T13:57:29;2.75;;;2.00;;
53718;SDS011;39616;48.872;9.390;2023-04-09T13:59:59;3.42;;;2.42;;
53718;SDS011;39616;48.872;9.390;2023-04-09T14:02:33;4.43;;;2.53;;
53718;SDS011;39616;48.872;9.390;2023-04-09T14:05:03;2.35;;;1.90;;
53718;SDS011;39616;48.872;9.390;2023-04-09T14:07:34;2.10;;;1.90;;
53718;SDS011;39616;48.872;9.390;2023-04-09T14:10:05;2.30;;;2.00;;
53718;SDS011;39616;48.872;9.390;2023-04-09T14:12:35;2.28;;;1.83;;
53718;SDS011;39616;48.872;9.390;2023-04-09T14:15:06;3.88;;;2.20;;
53718;SDS011;39616;48.872;9.390;2023-04-09T14:17:37;3.10;;;2.40;;
53718;SDS011;39616;48.872;9.390;2023-04-09T14:20:08;3.08;;;2.53;;
53718;SDS011;39616;48.872;9.390;2023-04-09T14:22:38;2.85;;;2.30;;
53718;SDS011;39616;48.872;9.390;2023-04-09T14:25:10;2.60;;;2.22;;
53718;SDS011;39616;48.872;9.390;2023-04-09T14:27:40;2.88;;;2.03;;
53718;SDS011;39616;48.872;9.390;2023-04-09T14:30:11;2.30;;;2.08;;
53718;SDS011;39616;48.872;9.390;2023-04-09T14:32:42;2.90;;;1.83;;
53718;SDS011;39616;48.872;9.390;2023-04-09T14:35:13;1.98;;;1.63;;
53718;SDS011;39616;48.872;9.390;2023-04-09T14:37:43;3.25;;;2.90;;
53718;SDS011;39616;48.872;9.390;2023-04-09T14:40:13;4.25;;;2.45;;
53718;SDS011;39616;48.872;9.390;2023-04-09T14:42:44;2.88;;;2.17;;
53718;SDS011;39616;48.872;9.390;2023-04-09T14:45:14;2.92;;;2.40;;
53718;SDS011;39616;48.872;9.390;2023-04-09T14:47:45;2.42;;;2.00;;
53718;SDS011;39616;48.872;9.390;2023-04-09T14:50:15;3.03;;;2.13;;
53718;SDS011;39616;48.872;9.390;2023-04-09T14:52:46;2.35;;;2.08;;
53718;SDS011;39616;48.872;9.390;2023-04-09T14:55:17;3.67;;;2.25;;
53718;SDS011;39616;48.872;9.390;2023-04-09T14:57:47;3.40;;;2.35;;
53718;SDS011;39616;48.872;9.390;2023-04-09T15:00:17;4.60;;;2.35;;
53718;SDS011;39616;48.872;9.390;2023-04-09T15:02:48;4.20;;;2.17;;
53718;SDS011;39616;48.872;9.390;2023-04-09T15:05:18;3.15;;;2.15;;
53718;SDS011;39616;48.872;9.390;2023-04-09T15:07:49;3.38;;;2.47;;
53718;SDS011;39616;48.872;9.390;2023-04-09T15:10:19;3.30;;;2.65;;
53718;SDS011;39616;48.872;9.390;2023-04-09T15:12:49;3.65;;;2.33;;
53718;SDS011;39616;48.872;9.390;2023-04-09T15:15:20;3.33;;;2.05;;
53718;SDS011;39616;48.872;9.390;2023-04-09T15:17:50;3.28;;;2.13;;
53718;SDS011;39616;48.872;9.390;2023-04-09T15:20:21;3.95;;;2.80;;
53718;SDS011;39616;48.872;9.390;2023-04-09T15:22:51;3.63;;;2.50;;
53718;SDS011;39616;48.872;9.390;2023-04-09T15:25:21;2.92;;;2.10;;
53718;SDS011;39616;48.872;9.390;2023-04-09T15:27:53;3.00;;;2.22;;
53718;SDS011;39616;48.872;9.390;2023-04-09T15:30:23;2.42;;;2.20;;
53718;SDS011;39616;48.872;9.390;2023-04-09T15:32:54;3.28;;;2.13;;
53718;SDS011;39616;48.872;9.390;2023-04-09T15:35:24;3.08;;;2.40;;